Time;durP1;ratioP1;P1;durP2;ratioP2;P2;SDS_P1;SDS_P2;PMS_P1;PMS_P2;Temp;Humidity;BMP_temperature;BMP_pressure;BME280_temperature;BME280_humidity;BME280_pressure;Samples;Min_cycle;Max_cycle;Signal;HPM_P1;HPM_P2
2024/01/14 00:00:37;;;;;;;34.55;16.48;;;4.80;99.90;;;;;;20671114;28;20038;-42
2024/01/14 00:10:37;;;;;;;32.33;14.38;;;4.80;99.90;;;;;;20653822;28;20116;-41
2024/01/14 00:20:38;;;;;;;34.17;15.32;;;4.80;99.90;;;;;;20676257;28;20566;-42
2024/01/14 00:30:39;;;;;;;35.15;15.10;;;4.70;99.90;;;;;;20684689;28;20030;-42
2024/01/14 00:40:39;;;;;;;32.85;14.40;;;4.60;99.90;;;;;;20667413;28;20054;-43
2024/01/14 00:50:40;;;;;;;28.65;13.35;;;4.60;99.90;;;;;;20673952;28;20034;-43
2024/01/14 01:00:41;;;;;;;42.03;16.87;;;4.50;99.90;;;;;;20667766;28;20048;-43
2024/01/14 01:10:41;;;;;;;44.58;19.08;;;4.60;99.90;;;;;;20673904;28;20511;-43
2024/01/14 01:20:42;;;;;;;46.33;19.55;;;4.50;99.90;;;;;;20674299;28;20049;-42
2024/01/14 01:30:43;;;;;;;50.65;20.27;;;4.50;99.90;;;;;;20661833;28;20058;-42
2024/01/14 01:40:43;;;;;;;39.92;16.08;;;4.40;99.90;;;;;;20662703;28;20038;-43
2024/01/14 01:50:44;;;;;;;42.25;16.70;;;4.30;99.90;;;;;;20660257;28;20430;-42
2024/01/14 02:00:45;;;;;;;35.53;14.23;;;4.20;99.90;;;;;;20665603;28;20387;-43
2024/01/14 02:10:45;;;;;;;34.78;14.90;;;4.20;99.90;;;;;;20644916;28;20073;-41
2024/01/14 02:20:46;;;;;;;51.83;18.85;;;4.10;99.90;;;;;;20659725;28;20046;-42
2024/01/14 02:30:48;;;;;;;40.58;17.23;;;4.10;99.90;;;;;;20657031;28;20121;-42
2024/01/14 02:40:48;;;;;;;59.28;21.33;;;3.80;99.90;;;;;;20650826;28;20062;-42
2024/01/14 02:50:49;;;;;;;62.90;23.02;;;3.70;99.90;;;;;;20647585;28;20397;-43
2024/01/14 03:00:50;;;;;;;56.67;22.85;;;3.80;99.90;;;;;;20655974;28;20038;-42
2024/01/14 03:10:51;;;;;;;55.20;22.30;;;3.70;99.90;;;;;;20653723;28;20046;-43
2024/01/14 03:20:51;;;;;;;57.33;21.80;;;3.80;99.90;;;;;;20649471;28;20078;-43
2024/01/14 03:41:03;;;;;;;59.05;22.45;;;3.70;99.90;;;;;;19624157;23;20073;-42
2024/01/14 03:51:03;;;;;;;48.28;19.33;;;3.60;99.90;;;;;;20568230;28;20033;-41
2024/01/14 04:01:04;;;;;;;35.17;13.95;;;3.70;99.90;;;;;;20573728;28;20237;-43
2024/01/14 04:11:05;;;;;;;43.80;18.70;;;3.70;99.90;;;;;;20550809;28;20386;-42
2024/01/14 04:21:05;;;;;;;52.58;22.10;;;3.70;99.90;;;;;;20554045;28;20517;-43
2024/01/14 04:31:06;;;;;;;57.53;23.30;;;3.90;99.90;;;;;;20551976;28;20035;-43
2024/01/14 04:41:06;;;;;;;62.63;25.67;;;3.80;99.90;;;;;;20551215;28;20259;-42
2024/01/14 04:51:07;;;;;;;62.37;25.23;;;3.80;99.90;;;;;;20546843;28;20544;-43
2024/01/14 05:01:08;;;;;;;59.63;25.95;;;3.80;99.90;;;;;;20552293;28;20715;-42
2024/01/14 05:11:09;;;;;;;58.73;25.50;;;3.90;99.90;;;;;;20561810;28;20038;-43
2024/01/14 05:21:16;;;;;;;48.10;22.55;;;4.00;99.90;;;;;;20564434;28;20041;-43
2024/01/14 05:31:17;;;;;;;50.75;22.23;;;3.90;99.90;;;;;;20559450;28;20042;-43
2024/01/14 05:41:17;;;;;;;53.47;23.13;;;3.90;99.90;;;;;;20563582;28;20426;-43
2024/01/14 05:51:18;;;;;;;52.53;21.67;;;3.70;99.90;;;;;;20566343;28;20150;-42
2024/01/14 06:01:18;;;;;;;47.50;21.53;;;3.60;99.90;;;;;;20574672;28;20034;-42
2024/01/14 06:11:19;;;;;;;45.53;22.30;;;3.50;99.90;;;;;;20572920;28;21042;-42
2024/01/14 06:21:20;;;;;;;57.27;24.87;;;3.50;99.90;;;;;;20570229;28;20079;-43
2024/01/14 06:31:20;;;;;;;61.20;25.60;;;3.70;99.90;;;;;;20581560;28;20744;-42
2024/01/14 06:41:25;;;;;;;63.35;26.05;;;3.60;99.90;;;;;;20569301;28;20039;-43
2024/01/14 06:51:26;;;;;;;66.53;25.35;;;3.50;99.90;;;;;;20573768;28;20043;-42
2024/01/14 07:01:26;;;;;;;56.15;23.95;;;3.50;99.90;;;;;;20569957;28;20389;-43
2024/01/14 07:11:27;;;;;;;53.63;23.10;;;3.50;99.90;;;;;;20574012;28;20038;-43
2024/01/14 07:21:28;;;;;;;55.07;23.00;;;3.60;99.90;;;;;;20576821;28;20054;-43
2024/01/14 07:31:30;;;;;;;59.92;22.70;;;3.60;99.90;;;;;;20573016;28;20478;-43
2024/01/14 07:41:31;;;;;;;60.97;25.15;;;3.60;99.90;;;;;;20582338;28;20039;-44
2024/01/14 07:51:32;;;;;;;63.08;25.48;;;3.60;99.90;;;;;;20568621;28;20041;-43
2024/01/14 08:01:34;;;;;;;58.67;23.87;;;3.60;99.90;;;;;;20565275;28;20108;-42
2024/01/14 08:11:35;;;;;;;59.60;23.42;;;3.60;99.90;;;;;;20566391;28;20880;-43
2024/01/14 08:21:35;;;;;;;51.60;22.33;;;3.60;99.90;;;;;;20573519;28;20042;-43
2024/01/14 08:31:36;;;;;;;47.93;19.83;;;3.60;99.90;;;;;;20548984;28;20038;-43
2024/01/14 08:41:36;;;;;;;66.85;26.65;;;3.70;99.90;;;;;;20572134;28;20489;-43
2024/01/14 08:51:41;;;;;;;69.93;29.42;;;3.80;99.90;;;;;;20574644;28;20063;-43
2024/01/14 09:01:42;;;;;;;55.25;22.40;;;3.80;99.90;;;;;;20528590;28;20039;-42
2024/01/14 09:11:45;;;;;;;60.17;22.00;;;3.90;99.90;;;;;;20577922;28;20045;-43
2024/01/14 09:21:45;;;;;;;58.75;23.45;;;3.80;99.90;;;;;;20542957;28;20483;-42
2024/01/14 09:31:46;;;;;;;65.05;24.67;;;4.00;99.90;;;;;;20584239;28;20070;-42
2024/01/14 09:42:05;;;;;;;56.53;23.13;;;4.00;99.90;;;;;;20566390;28;20051;-42
2024/01/14 09:52:07;;;;;;;53.13;22.83;;;4.00;99.90;;;;;;20570404;28;20822;-42
2024/01/14 10:02:08;;;;;;;57.58;21.45;;;4.10;99.90;;;;;;20574564;28;20587;-43
2024/01/14 10:12:09;;;;;;;59.25;22.50;;;4.10;99.90;;;;;;20537243;28;20161;-43
2024/01/14 10:22:10;;;;;;;54.15;23.20;;;4.20;99.90;;;;;;20560815;28;20057;-43
2024/01/14 10:32:11;;;;;;;57.50;24.13;;;4.20;99.90;;;;;;20566244;28;20065;-43
2024/01/14 10:42:12;;;;;;;52.20;23.13;;;4.20;99.90;;;;;;20568074;28;20503;-43
2024/01/14 10:52:13;;;;;;;57.83;25.33;;;4.20;99.90;;;;;;20581912;28;20034;-42
2024/01/14 11:02:17;;;;;;;49.20;22.25;;;4.20;99.90;;;;;;20590077;28;20042;-42
2024/01/14 11:12:27;;;;;;;71.82;33.95;;;4.20;99.90;;;;;;20590694;28;20049;-43
2024/01/14 11:22:28;;;;;;;71.68;31.45;;;4.30;99.90;;;;;;20566048;28;20129;-42
2024/01/14 11:32:29;;;;;;;58.87;23.00;;;4.40;99.90;;;;;;20570564;28;20589;-42
2024/01/14 11:42:30;;;;;;;60.78;22.85;;;4.40;99.90;;;;;;20573461;28;20463;-41
2024/01/14 11:52:30;;;;;;;51.40;21.87;;;4.60;99.90;;;;;;20569927;28;20034;-43
2024/01/14 12:02:31;;;;;;;46.97;20.52;;;4.70;99.90;;;;;;20569651;28;20513;-43
2024/01/14 12:12:36;;;;;;;48.13;19.37;;;4.80;99.90;;;;;;20576068;28;20541;-42
2024/01/14 12:22:36;;;;;;;44.83;18.33;;;4.70;99.90;;;;;;20588761;28;20199;-43
2024/01/14 12:32:37;;;;;;;46.65;20.02;;;4.80;99.90;;;;;;20585128;28;20050;-42
2024/01/14 12:42:37;;;;;;;52.50;22.60;;;4.60;99.90;;;;;;20586833;28;20055;-42
2024/01/14 12:52:38;;;;;;;52.72;21.52;;;4.70;99.90;;;;;;20572444;28;20502;-43
2024/01/14 13:02:39;;;;;;;49.03;21.67;;;4.70;99.90;;;;;;20585876;28;20081;-42
2024/01/14 13:12:39;;;;;;;50.28;22.63;;;4.60;99.90;;;;;;20577289;28;20454;-43
2024/01/14 13:22:42;;;;;;;46.43;22.20;;;4.70;99.90;;;;;;20569606;28;20565;-43
2024/01/14 13:32:42;;;;;;;44.42;18.55;;;4.90;99.90;;;;;;20566115;28;20536;-42
2024/01/14 13:42:43;;;;;;;35.57;16.80;;;4.80;99.90;;;;;;20543079;28;20035;-42
2024/01/14 13:52:43;;;;;;;35.03;15.88;;;4.60;99.90;;;;;;20567220;28;20473;-42
2024/01/14 14:02:44;;;;;;;38.00;17.43;;;4.60;99.90;;;;;;20567536;28;20241;-42
2024/01/14 14:12:45;;;;;;;32.67;15.48;;;4.70;99.90;;;;;;20566858;28;20458;-43
2024/01/14 14:22:46;;;;;;;29.67;13.50;;;4.80;99.90;;;;;;20528927;28;20141;-43
2024/01/14 14:32:46;;;;;;;35.92;15.30;;;4.80;99.90;;;;;;20570946;28;20054;-42
2024/01/14 14:42:47;;;;;;;40.03;17.00;;;4.70;99.90;;;;;;20562815;28;20053;-43
2024/01/14 14:52:47;;;;;;;48.80;19.05;;;4.50;99.90;;;;;;20563334;28;20043;-41
2024/01/14 15:02:48;;;;;;;45.75;20.15;;;4.40;99.90;;;;;;20546966;28;20061;-42
2024/01/14 15:12:53;;;;;;;47.17;19.00;;;4.20;99.90;;;;;;20555038;28;20732;-42
2024/01/14 15:22:54;;;;;;;43.65;18.63;;;4.00;99.90;;;;;;20536861;28;20472;-42
2024/01/14 15:32:55;;;;;;;40.55;16.55;;;3.90;99.90;;;;;;20553636;28;20051;-43
2024/01/14 15:42:57;;;;;;;63.85;27.88;;;3.80;99.90;;;;;;20560651;28;20065;-43
2024/01/14 15:52:57;;;;;;;53.22;25.20;;;3.80;99.90;;;;;;20547789;28;20043;-42
2024/01/14 16:02:58;;;;;;;51.88;22.10;;;3.90;99.90;;;;;;20549813;28;20034;-42
2024/01/14 16:12:59;;;;;;;46.50;19.55;;;3.90;99.90;;;;;;20563882;28;20474;-43
2024/01/14 16:22:59;;;;;;;46.53;19.17;;;3.80;99.90;;;;;;20567987;28;20049;-42
2024/01/14 16:33:00;;;;;;;44.33;18.02;;;3.80;99.90;;;;;;20565889;28;20449;-42
2024/01/14 16:43:01;;;;;;;36.50;15.50;;;3.80;99.90;;;;;;20559641;28;20075;-42
2024/01/14 16:53:01;;;;;;;19.98;8.15;;;3.80;99.90;;;;;;20500799;28;21376;-41
2024/01/14 17:03:02;;;;;;;20.33;7.00;;;3.80;99.90;;;;;;20557783;28;20078;-42
2024/01/14 17:13:03;;;;;;;8.32;4.55;;;3.80;99.90;;;;;;20549740;28;20078;-41
2024/01/14 17:23:04;;;;;;;7.45;2.72;;;3.60;99.90;;;;;;20539122;28;20410;-43
2024/01/14 17:33:05;;;;;;;4.20;1.15;;;3.80;99.90;;;;;;20546628;28;20129;-42
2024/01/14 17:43:05;;;;;;;6.03;0.70;;;3.80;99.90;;;;;;20550896;28;20054;-43
2024/01/14 17:53:06;;;;;;;1.88;0.82;;;3.80;99.90;;;;;;20538736;28;20471;-43
2024/01/14 18:03:08;;;;;;;5.90;2.08;;;3.70;99.90;;;;;;20528845;28;20042;-42
2024/01/14 18:13:09;;;;;;;6.38;1.45;;;3.70;99.90;;;;;;20526048;28;20047;-43
2024/01/14 18:23:10;;;;;;;3.15;0.70;;;3.60;99.90;;;;;;20534688;28;20099;-41
2024/01/14 18:33:10;;;;;;;16.17;5.68;;;3.60;99.90;;;;;;20540732;28;20081;-43
2024/01/14 18:43:11;;;;;;;2.80;1.10;;;3.60;99.90;;;;;;20560735;28;20078;-43
2024/01/14 18:53:12;;;;;;;6.68;1.45;;;3.40;99.90;;;;;;20551697;28;20038;-43
2024/01/14 19:03:13;;;;;;;8.27;1.30;;;3.40;99.90;;;;;;20550905;28;20405;-43
2024/01/14 19:13:13;;;;;;;4.30;1.10;;;3.20;99.90;;;;;;20556236;28;20466;-41
2024/01/14 19:23:14;;;;;;;4.77;1.10;;;3.20;99.90;;;;;;20553460;28;20067;-43
2024/01/14 19:33:17;;;;;;;3.83;0.80;;;3.30;99.90;;;;;;20556619;28;20470;-42
2024/01/14 19:43:17;;;;;;;12.95;0.75;;;3.50;99.90;;;;;;20553575;28;20482;-42
2024/01/14 19:53:19;;;;;;;5.30;1.00;;;3.60;99.90;;;;;;20552567;28;20046;-43
2024/01/14 20:03:20;;;;;;;8.25;2.65;;;3.60;99.90;;;;;;20546844;28;20489;-41
2024/01/14 20:13:21;;;;;;;3.83;0.60;;;3.40;99.90;;;;;;20551563;28;20085;-43
2024/01/14 20:23:22;;;;;;;3.65;0.80;;;3.30;99.90;;;;;;20558760;28;20048;-42
2024/01/14 20:33:25;;;;;;;8.40;0.85;;;3.30;99.90;;;;;;20556247;28;20129;-42
2024/01/14 20:43:26;;;;;;;5.50;0.68;;;3.50;99.90;;;;;;20568379;28;20047;-43
2024/01/14 20:53:26;;;;;;;1.27;0.40;;;3.70;99.90;;;;;;20578506;28;20506;-43
2024/01/14 21:03:27;;;;;;;4.20;1.30;;;3.60;99.90;;;;;;20558746;28;21268;-43
2024/01/14 21:13:27;;;;;;;4.05;0.95;;;3.40;99.90;;;;;;20560988;28;20077;-42
2024/01/14 21:23:28;;;;;;;9.48;2.83;;;3.50;99.90;;;;;;20585767;28;20058;-41
2024/01/14 21:33:29;;;;;;;5.72;1.38;;;3.30;99.90;;;;;;20586861;28;20039;-42
2024/01/14 21:43:35;;;;;;;4.80;1.23;;;3.00;99.90;;;;;;20589970;28;20537;-42
2024/01/14 21:53:36;;;;;;;8.80;2.13;;;3.00;99.90;;;;;;20596806;28;20151;-42
2024/01/14 22:03:36;;;;;;;6.65;1.40;;;2.90;99.90;;;;;;20597798;28;20704;-43
2024/01/14 22:13:37;;;;;;;7.22;0.90;;;2.90;99.90;;;;;;20593722;28;20054;-42
2024/01/14 22:23:38;;;;;;;4.00;0.73;;;2.90;99.90;;;;;;20585874;28;20034;-41
2024/01/14 22:33:38;;;;;;;4.70;1.27;;;2.80;99.90;;;;;;20595258;28;20486;-43
2024/01/14 22:43:39;;;;;;;6.28;1.27;;;2.80;99.90;;;;;;20593842;28;20043;-43
2024/01/14 22:53:40;;;;;;;6.78;0.85;;;3.10;99.90;;;;;;20594001;28;20038;-43
2024/01/14 23:03:42;;;;;;;20.90;4.00;;;3.10;99.90;;;;;;20580913;28;20109;-43
2024/01/14 23:13:43;;;;;;;11.43;2.88;;;3.00;99.90;;;;;;20576451;28;20113;-42
2024/01/14 23:23:45;;;;;;;4.53;1.80;;;2.80;99.90;;;;;;20577310;28;20091;-42
2024/01/14 23:33:45;;;;;;;8.40;1.85;;;2.60;99.90;;;;;;20567916;28;20030;-43
2024/01/14 23:43:46;;;;;;;8.23;1.13;;;2.40;99.90;;;;;;20567885;28;20043;-42
2024/01/14 23:53:46;;;;;;;8.03;2.73;;;2.20;99.90;;;;;;20566028;28;20491;-42
